CST,Max TemperatureF,Mean TemperatureF,Min TemperatureF,Max Dew PointF,MeanDew PointF,Min DewpointF,Max Humidity, Mean Humidity, Min Humidity, Max Sea Level PressureIn, Mean Sea Level PressureIn, Min Sea Level PressureIn, Max VisibilityMiles, Mean VisibilityMiles, Min VisibilityMiles, Max Wind SpeedMPH, Mean Wind SpeedMPH, Max Gust SpeedMPH,PrecipitationIn, CloudCover, Events, WindDirDegrees
2013-1-1,66,57,48,66,54,42,97,92,80,30.20,30.03,29.93,10,8,2,16,10,25,0.19,8,Rain,348
2013-1-2,46,44,43,40,37,34,81,76,71,30.32,30.26,30.18,10,10,10,13,10,,0.02,7,Rain,356
2013-1-3,44,42,42,32,31,31,67,64,60,30.44,30.40,30.35,10,10,10,16,12,,0.00,8,,20
2013-1-4,48,47,46,35,35,35,63,62,61,30.51,30.44,30.37,10,10,10,13,10,,0.00,8,,35
2013-1-5,46,44,42,43,42,41,93,91,87,30.39,30.37,30.35,10,8,5,10,10,,0.07,8,Rain,45
2013-1-6,60,50,37,42,39,35,93,67,47,30.35,30.32,30.28,10,10,10,13,9,22,0.00,0,,7
2013-1-7,41,37,33,38,36,33,100,93,86,30.33,30.32,30.31,10,8,4,5,3,,0.00,0,,17
2013-1-8,63,57,51,63,55,45,100,93,72,30.07,29.99,29.90,10,5,1,20,8,25,0.22,8,Rain-Thunderstorm,86
2013-1-9,66,64,62,64,63,61,100,96,90,30.07,29.96,29.88,10,4,0,21,9,26,1.84,8,Fog-Rain-Thunderstorm,80
2013-1-10,61,61,61,60,60,59,97,95,93,30.06,30.06,30.06,10,10,9,8,6,,0.01,6,Rain,195
2013-1-11,66,,66,63,63,63,88,88,88,29.89,29.89,29.89,10,10,10,9,9,,0.00,8,,120
2013-1-12,75,73,71,70,70,69,94,89,82,29.89,29.82,29.73,10,9,5,23,16,37,0.00,7,Rain,173
2013-1-13,52,46,42,46,40,38,93,83,61,30.10,30.01,29.88,10,9,5,21,16,30,0.11,8,Rain,350
2013-1-14,45,42,39,38,38,37,93,83,76,30.23,30.18,30.13,10,10,10,16,14,,0.00,8,,28
2013-1-15,44,40,37,39,37,33,100,89,76,30.19,30.10,30.04,10,8,4,16,9,18,0.02,8,Rain,356
2013-1-16,50,40,30,33,26,18,89,58,29,30.33,30.27,30.19,10,10,10,15,11,24,0.00,3,,327
2013-1-17,64,62,57,33,30,27,40,31,28,30.42,30.40,30.38,10,10,10,14,10,,0.00,0,,357
2013-1-18,61,61,59,40,40,40,49,48,46,30.41,30.41,30.41,10,10,10,14,11,18,0.00,0,,150
2013-1-19,68,52,37,50,42,34,97,67,37,30.39,30.31,30.22,10,9,6,10,3,,0.00,0,,173
2013-1-20,69,52,46,55,50,46,100,95,49,30.31,30.26,30.22,10,2,0,5,0,,0.00,2,Fog,0
2013-1-21,71,57,43,54,49,42,100,75,47,30.27,30.22,30.19,10,7,0,8,2,,0.00,1,Fog,150
2013-1-22,71,65,60,51,50,49,67,56,47,30.35,30.32,30.26,10,10,9,9,6,,0.00,0,,157
2013-1-23,73,60,48,59,54,46,100,85,53,30.38,30.31,30.27,10,5,0,9,4,,0.00,3,Fog,143
2013-1-24,81,72,64,63,61,59,94,77,47,30.24,30.20,30.17,10,10,10,14,12,21,0.00,3,,188
2013-1-25,73,70,66,64,63,61,90,80,68,30.17,30.13,30.10,10,10,10,13,10,,0.00,5,,183
2013-1-26,79,70,60,64,61,56,100,85,47,30.22,30.17,30.12,10,8,0,12,4,20,0.00,4,Fog,156
2013-1-27,78,70,62,66,64,59,93,82,62,30.17,30.11,30.04,10,10,10,20,10,26,0.01,7,Rain,157
2013-1-28,81,76,71,68,64,60,87,67,50,30.13,30.05,29.98,10,10,10,22,17,26,0.00,7,,169
2013-1-29,75,72,62,69,66,57,84,81,73,29.95,29.78,29.65,10,9,6,23,17,33,0.04,8,Rain,196
2013-1-30,60,58,57,50,34,24,69,42,28,30.03,29.90,29.83,10,10,10,20,9,31,0.00,6,Rain,310
2013-1-31,37,35,33,33,32,30,92,88,82,30.32,30.27,30.25,10,10,10,0,0,,0.00,0,,-1